createdAt,value
2019-01-10T00:00:21.180Z,101302.13
2019-01-10T00:02:49.628Z,101304.96
2019-01-10T00:05:18.251Z,101310.09
2019-01-10T00:07:46.761Z,101323.45
2019-01-10T00:10:17.555Z,101320.94
2019-01-10T00:12:45.990Z,101331.95
2019-01-10T00:15:18.873Z,101335.63
2019-01-10T00:17:47.475Z,101332.27
2019-01-10T00:20:18.516Z,101337.93
2019-01-10T00:22:47.217Z,101339.48
2019-01-10T00:25:15.827Z,101336.65
2019-01-10T00:27:44.360Z,101340.58
2019-01-10T00:30:19.077Z,101340.58
2019-01-10T00:32:47.591Z,101353.62
2019-01-10T00:35:16.093Z,101353.27
2019-01-10T00:37:44.541Z,101355.17
2019-01-10T00:40:15.428Z,101352.51
2019-01-10T00:42:49.496Z,101352.78
2019-01-10T00:45:17.155Z,101356.98
2019-01-10T00:47:45.682Z,101356.49
2019-01-10T00:50:16.792Z,101363.39
2019-01-10T00:52:45.557Z,101368.96
2019-01-10T00:55:14.167Z,101373.38
2019-01-10T00:57:42.680Z,101371.30
2019-01-10T01:00:23.927Z,101370.06
2019-01-10T01:02:52.554Z,101388.50
2019-01-10T01:05:21.624Z,101379.52
2019-01-10T01:07:50.142Z,101384.29
2019-01-10T01:10:20.619Z,101379.87
2019-01-10T01:12:58.044Z,101386.42
2019-01-10T01:15:19.765Z,101390.00
2019-01-10T01:17:48.306Z,101398.45
2019-01-10T01:20:24.001Z,101396.02
2019-01-10T01:22:52.550Z,101407.28
2019-01-10T01:25:21.245Z,101408.73
2019-01-10T01:27:49.746Z,101411.56
2019-01-10T01:30:21.231Z,101410.11
2019-01-10T01:32:49.687Z,101415.64
2019-01-10T01:35:18.579Z,101424.61
2019-01-10T01:37:47.114Z,101428.02
2019-01-10T01:40:20.484Z,101431.52
2019-01-10T01:42:49.209Z,101427.66
2019-01-10T01:45:19.793Z,101441.02
2019-01-10T01:47:48.446Z,101444.07
2019-01-10T01:50:22.738Z,101445.78
2019-01-10T01:52:53.565Z,101449.46
2019-01-10T01:55:22.317Z,101457.61
2019-01-10T01:57:50.817Z,101458.44
2019-01-10T02:00:21.684Z,101463.33
2019-01-10T02:02:50.324Z,101464.31
2019-01-10T02:05:19.583Z,101465.86
2019-01-10T02:07:48.115Z,101480.26
2019-01-10T02:10:22.226Z,101483.42
2019-01-10T02:12:50.842Z,101484.86
2019-01-10T02:15:19.289Z,101490.94
2019-01-10T02:17:49.323Z,101492.84
2019-01-10T02:20:18.255Z,101496.43
2019-01-10T02:22:46.856Z,101490.02
2019-01-10T02:25:16.646Z,101497.31
2019-01-10T02:27:45.178Z,101500.03
2019-01-10T02:30:22.630Z,101498.00
2019-01-10T02:32:51.068Z,101502.59
2019-01-10T02:35:19.538Z,101504.41
2019-01-10T02:37:48.034Z,101509.14
2019-01-10T02:40:17.066Z,101510.29
2019-01-10T02:42:45.508Z,101508.48
2019-01-10T02:45:17.698Z,101513.90
2019-01-10T02:47:46.116Z,101520.05
2019-01-10T02:50:19.730Z,101525.17
2019-01-10T02:52:48.447Z,101519.80
2019-01-10T02:55:17.191Z,101522.50
2019-01-10T02:57:46.929Z,101524.80
2019-01-10T03:00:20.880Z,101531.33
2019-01-10T03:02:49.537Z,101534.38
2019-01-10T03:05:18.316Z,101519.78
2019-01-10T03:07:46.938Z,101527.73
2019-01-10T03:10:18.631Z,101528.52
2019-01-10T03:12:47.071Z,101528.47
2019-01-10T03:15:15.514Z,101530.16
2019-01-10T03:17:43.841Z,101526.33
2019-01-10T03:20:15.771Z,101540.38
2019-01-10T03:22:44.215Z,101526.20
2019-01-10T03:25:12.654Z,101530.77
2019-01-10T03:27:41.089Z,101533.73
2019-01-10T03:30:12.584Z,101531.56
2019-01-10T03:32:41.054Z,101532.98
2019-01-10T03:35:10.561Z,101536.66
2019-01-10T03:37:39.027Z,101542.30
2019-01-10T03:40:10.513Z,101542.07
2019-01-10T03:42:39.011Z,101548.89
2019-01-10T03:45:10.818Z,101544.13
2019-01-10T03:47:39.249Z,101550.30
2019-01-10T03:50:10.289Z,101551.84
2019-01-10T03:52:38.741Z,101565.70
2019-01-10T03:55:07.623Z,101558.66
2019-01-10T03:57:36.081Z,101554.92
2019-01-10T04:00:07.798Z,101552.00
2019-01-10T04:02:36.254Z,101561.59
2019-01-10T04:05:05.336Z,101558.25
2019-01-10T04:07:33.772Z,101551.84
2019-01-10T04:10:02.211Z,101559.30
2019-01-10T04:12:30.681Z,101561.33
2019-01-10T04:14:59.107Z,101560.81
2019-01-10T04:17:27.569Z,101570.44
2019-01-10T04:19:56.016Z,101570.96
2019-01-10T04:22:24.468Z,101564.91
2019-01-10T04:24:52.904Z,101568.22
2019-01-10T04:27:21.364Z,101573.07
2019-01-10T04:29:49.827Z,101586.30
2019-01-10T04:32:18.274Z,101581.31
2019-01-10T04:34:46.713Z,101582.06
2019-01-10T04:37:15.169Z,101581.83
2019-01-10T04:39:43.615Z,101591.84
2019-01-10T04:42:12.054Z,101589.00
2019-01-10T04:44:40.497Z,101589.80
2019-01-10T04:47:08.950Z,101594.02
2019-01-10T04:49:37.384Z,101590.17
2019-01-10T04:52:05.860Z,101595.95
2019-01-10T04:54:38.220Z,101597.99
2019-01-10T04:57:04.593Z,101595.19
2019-01-10T04:59:33.089Z,101594.41
2019-01-10T05:02:01.552Z,101597.34
2019-01-10T05:04:29.999Z,101606.83
2019-01-10T05:06:58.426Z,101605.70
2019-01-10T05:09:26.894Z,101607.50
2019-01-10T05:11:55.334Z,101616.72
2019-01-10T05:14:23.782Z,101609.81
2019-01-10T05:16:52.232Z,101610.56
2019-01-10T05:19:20.681Z,101621.45
2019-01-10T05:21:49.124Z,101622.50
2019-01-10T05:24:17.570Z,101623.40
2019-01-10T05:26:46.032Z,101625.96
2019-01-10T05:29:14.485Z,101631.06
2019-01-10T05:31:42.932Z,101638.77
2019-01-10T05:34:11.952Z,101651.33
2019-01-10T05:36:40.390Z,101649.02
2019-01-10T05:39:09.135Z,101654.89
2019-01-10T05:41:37.558Z,101649.91
2019-01-10T05:44:06.005Z,101657.20
2019-01-10T05:46:34.440Z,101660.91
2019-01-10T05:49:02.893Z,101649.88
2019-01-10T05:51:31.348Z,101655.53
2019-01-10T05:53:59.789Z,101665.14
2019-01-10T05:56:28.229Z,101667.45
2019-01-10T05:58:56.693Z,101664.64
2019-01-10T06:01:25.115Z,101673.85
2019-01-10T06:03:53.788Z,101671.29
2019-01-10T06:06:22.282Z,101673.60
2019-01-10T06:08:50.826Z,101682.56
2019-01-10T06:11:19.256Z,101683.45
2019-01-10T06:13:47.729Z,101683.06
2019-01-10T06:16:16.168Z,101688.47
2019-01-10T06:18:44.681Z,101692.80
2019-01-10T06:21:13.172Z,101696.90
2019-01-10T06:23:41.628Z,101706.66
2019-01-10T06:26:10.105Z,101705.63
2019-01-10T06:28:38.569Z,101720.20
2019-01-10T06:31:07.014Z,101724.05
2019-01-10T06:33:35.492Z,101726.36
2019-01-10T06:36:04.024Z,101719.67
2019-01-10T06:38:32.454Z,101729.66
2019-01-10T06:41:00.910Z,101729.67
2019-01-10T06:43:29.345Z,101728.64
2019-01-10T06:45:57.797Z,101730.56
2019-01-10T06:48:26.224Z,101733.91
2019-01-10T06:50:54.790Z,101732.52
2019-01-10T06:53:23.209Z,101740.70
2019-01-10T06:55:51.700Z,101744.00
2019-01-10T06:58:20.146Z,101748.37
2019-01-10T07:00:48.626Z,101744.78
2019-01-10T07:03:17.056Z,101749.91
2019-01-10T07:05:45.512Z,101761.83
2019-01-10T07:08:13.954Z,101761.73
2019-01-10T07:10:42.415Z,101764.53
2019-01-10T07:13:10.853Z,101767.21
2019-01-10T07:15:39.422Z,101766.95
2019-01-10T07:18:07.817Z,101770.41
2019-01-10T07:20:39.397Z,101764.25
2019-01-10T07:23:07.863Z,101769.91
2019-01-10T07:25:36.331Z,101781.93
2019-01-10T07:28:09.065Z,101771.19
2019-01-10T07:30:37.676Z,101777.59
2019-01-10T07:33:09.149Z,101782.67
2019-01-10T07:35:37.613Z,101786.48
2019-01-10T07:38:06.039Z,101795.69
2019-01-10T07:40:37.547Z,101786.72
2019-01-10T07:43:05.984Z,101799.61
2019-01-10T07:45:34.467Z,101795.67
2019-01-10T07:48:06.909Z,101801.44
2019-01-10T07:50:35.965Z,101836.89
2019-01-10T07:53:05.604Z,101811.11
2019-01-10T07:55:34.042Z,101810.73
2019-01-10T07:58:02.555Z,101811.03
2019-01-10T08:00:30.990Z,101817.69
2019-01-10T08:02:59.449Z,101810.27
2019-01-10T08:05:27.876Z,101819.53
2019-01-10T08:07:56.326Z,101820.66
2019-01-10T08:10:24.770Z,101822.84
2019-01-10T08:12:53.235Z,101830.01
2019-01-10T08:15:22.652Z,101832.57
2019-01-10T08:17:51.140Z,101830.09
2019-01-10T08:20:20.048Z,101834.15
2019-01-10T08:22:48.536Z,101840.45
2019-01-10T08:25:16.982Z,101848.17
2019-01-10T08:27:45.573Z,101848.98
2019-01-10T08:30:17.061Z,101851.17
2019-01-10T08:32:45.509Z,101860.84
2019-01-10T08:35:15.718Z,101867.16
2019-01-10T08:37:44.152Z,101872.03
2019-01-10T08:40:12.941Z,101866.42
2019-01-10T08:42:41.404Z,101867.08
2019-01-10T08:45:11.098Z,101869.26
2019-01-10T08:47:39.540Z,101866.94
2019-01-10T08:50:13.508Z,101877.30
2019-01-10T08:52:42.044Z,101880.45
2019-01-10T08:55:10.636Z,101874.84
2019-01-10T08:57:39.103Z,101879.47
2019-01-10T09:00:18.535Z,101880.27
2019-01-10T09:02:47.341Z,101884.37
2019-01-10T09:05:15.757Z,101884.13
2019-01-10T09:07:44.300Z,101890.55
2019-01-10T09:10:16.134Z,101893.77
2019-01-10T09:12:44.583Z,101884.63
2019-01-10T09:15:13.022Z,101907.68
2019-01-10T09:17:41.488Z,101881.81
2019-01-10T09:20:12.973Z,101884.29
2019-01-10T09:22:41.428Z,101899.75
2019-01-10T09:25:10.091Z,101894.39
2019-01-10T09:27:38.722Z,101895.41
2019-01-10T09:30:10.208Z,101904.37
2019-01-10T09:32:38.683Z,101897.73
2019-01-10T09:35:07.563Z,101897.36
2019-01-10T09:37:36.061Z,101913.60
2019-01-10T09:40:07.268Z,101914.86
2019-01-10T09:42:35.733Z,101915.34
2019-01-10T09:45:06.350Z,101920.27
2019-01-10T09:47:34.774Z,101916.02
2019-01-10T09:50:04.000Z,101927.57
2019-01-10T09:52:32.436Z,101933.17
2019-01-10T09:55:01.008Z,101932.45
2019-01-10T09:57:29.406Z,101932.44
2019-01-10T09:59:57.942Z,101937.81
2019-01-10T10:02:26.389Z,101937.08
2019-01-10T10:04:55.757Z,101942.45
2019-01-10T10:07:24.211Z,101938.22
2019-01-10T10:09:52.665Z,101936.94
2019-01-10T10:12:21.117Z,101950.61
2019-01-10T10:14:49.586Z,101939.43
2019-01-10T10:17:18.047Z,101941.10
2019-01-10T10:19:46.505Z,101948.61
2019-01-10T10:22:14.966Z,101942.63
2019-01-10T10:24:43.427Z,101942.79
2019-01-10T10:27:11.867Z,101944.22
2019-01-10T10:29:40.350Z,101942.46
2019-01-10T10:32:08.768Z,101936.55
2019-01-10T10:34:37.270Z,101937.73
2019-01-10T10:37:05.730Z,101936.20
2019-01-10T10:39:34.411Z,101946.31
2019-01-10T10:42:02.846Z,101947.69
2019-01-10T10:44:31.333Z,101927.42
2019-01-10T10:46:59.777Z,101933.01
2019-01-10T10:49:28.393Z,101925.13
2019-01-10T10:51:56.848Z,101928.94
2019-01-10T10:54:25.296Z,101929.33
2019-01-10T10:56:53.748Z,101925.57
2019-01-10T10:59:22.206Z,101919.72
2019-01-10T11:01:50.644Z,101927.95
2019-01-10T11:04:19.111Z,101919.86
2019-01-10T11:06:47.575Z,101902.70
2019-01-10T11:09:16.018Z,101917.79
2019-01-10T11:11:44.470Z,101913.31
2019-01-10T11:14:12.909Z,101911.13
2019-01-10T11:16:41.356Z,101917.55
2019-01-10T11:19:09.822Z,101913.05
2019-01-10T11:21:38.268Z,101914.87
2019-01-10T11:24:06.694Z,101919.17
2019-01-10T11:26:35.157Z,101925.66
2019-01-10T11:29:03.787Z,101918.37
2019-01-10T11:31:32.230Z,101913.80
2019-01-10T11:34:00.680Z,101903.59
2019-01-10T11:36:29.113Z,101910.24
2019-01-10T11:38:57.573Z,101907.78
2019-01-10T11:41:26.038Z,101914.09
2019-01-10T11:43:54.497Z,101914.63
2019-01-10T11:46:22.965Z,101915.88
2019-01-10T11:48:51.521Z,101917.44
2019-01-10T11:51:19.955Z,101916.27
2019-01-10T11:53:48.442Z,101913.80
2019-01-10T11:56:16.882Z,101916.51
2019-01-10T11:58:45.346Z,101904.13
2019-01-10T12:01:13.785Z,101899.63
2019-01-10T12:03:42.345Z,101899.98
2019-01-10T12:06:10.859Z,101906.39
2019-01-10T12:08:39.310Z,101907.28
2019-01-10T12:11:07.752Z,101906.64
2019-01-10T12:13:36.201Z,101897.77
2019-01-10T12:16:04.714Z,101894.61
2019-01-10T12:18:33.212Z,101898.91
2019-01-10T12:21:01.612Z,101891.21
2019-01-10T12:23:30.085Z,101897.77
2019-01-10T12:25:59.189Z,101897.91
2019-01-10T12:28:27.657Z,101890.23
2019-01-10T12:30:56.099Z,101897.67
2019-01-10T12:33:24.561Z,101897.06
2019-01-10T12:35:53.011Z,101895.14
2019-01-10T12:38:21.537Z,101900.38
2019-01-10T12:40:51.497Z,101894.75
2019-01-10T12:43:19.928Z,101896.28
2019-01-10T12:45:48.395Z,101892.08
2019-01-10T12:48:16.843Z,101895.64
2019-01-10T12:50:45.292Z,101908.22
2019-01-10T12:53:13.729Z,101898.95
2019-01-10T12:55:42.176Z,101904.13
2019-01-10T12:58:10.611Z,101905.61
2019-01-10T13:00:39.069Z,101906.79
2019-01-10T13:03:07.593Z,101910.48
2019-01-10T13:05:36.137Z,101915.63
2019-01-10T13:08:04.748Z,101916.91
2019-01-10T13:10:33.200Z,101905.41
2019-01-10T13:13:01.708Z,101908.97
2019-01-10T13:15:30.187Z,101904.87
2019-01-10T13:17:58.692Z,101903.48
2019-01-10T13:20:27.365Z,101903.88
2019-01-10T13:22:55.821Z,101896.14
2019-01-10T13:25:24.401Z,101904.13
2019-01-10T13:27:53.030Z,101905.66
2019-01-10T13:30:25.238Z,101908.72
2019-01-10T13:32:54.629Z,101909.86
2019-01-10T13:35:23.502Z,101911.03
2019-01-10T13:37:51.962Z,101911.77
2019-01-10T13:40:20.561Z,101906.50
2019-01-10T13:42:49.175Z,101913.20
2019-01-10T13:45:18.674Z,101912.42
2019-01-10T13:47:50.657Z,101910.53
2019-01-10T13:50:21.538Z,101909.75
2019-01-10T13:52:50.036Z,101923.46
2019-01-10T13:55:20.035Z,101916.66
2019-01-10T13:57:48.558Z,101918.73
2019-01-10T14:00:20.058Z,101908.22
2019-01-10T14:02:48.502Z,101917.44
2019-01-10T14:05:17.098Z,101920.12
2019-01-10T14:07:45.646Z,101925.78
2019-01-10T14:10:16.281Z,101920.61
2019-01-10T14:12:44.893Z,101918.44
2019-01-10T14:15:20.261Z,101931.74
2019-01-10T14:17:48.792Z,101932.92
2019-01-10T14:20:17.504Z,101941.50
2019-01-10T14:22:46.130Z,101944.39
2019-01-10T14:25:15.544Z,101942.22
2019-01-10T14:27:44.048Z,101938.63
2019-01-10T14:30:24.567Z,101942.48
2019-01-10T14:32:53.172Z,101944.56
2019-01-10T14:35:21.800Z,101944.72
2019-01-10T14:37:50.400Z,101946.80
2019-01-10T14:40:19.190Z,101949.59
2019-01-10T14:42:47.698Z,101946.30
2019-01-10T14:45:17.896Z,101945.02
2019-01-10T14:47:46.336Z,101942.73
2019-01-10T14:50:17.490Z,101946.72
2019-01-10T14:52:45.926Z,101949.41
2019-01-10T14:55:15.242Z,101947.05
2019-01-10T14:57:43.921Z,101949.57
2019-01-10T15:00:18.262Z,101941.32
2019-01-10T15:02:46.770Z,101954.15
2019-01-10T15:05:15.278Z,101955.50
2019-01-10T15:07:43.721Z,101948.97
2019-01-10T15:10:12.914Z,101959.46
2019-01-10T15:12:42.030Z,101961.59
2019-01-10T15:15:19.411Z,101967.84
2019-01-10T15:17:47.951Z,101959.34
2019-01-10T15:20:24.563Z,101967.77
2019-01-10T15:22:53.006Z,101974.80
2019-01-10T15:25:21.623Z,101971.28
2019-01-10T15:27:50.035Z,101972.73
2019-01-10T15:30:20.910Z,101976.18
2019-01-10T15:32:49.382Z,101974.11
2019-01-10T15:35:18.764Z,101976.45
2019-01-10T15:37:47.268Z,101975.66
2019-01-10T15:40:27.464Z,101977.34
2019-01-10T15:42:55.938Z,101978.23
2019-01-10T15:45:24.721Z,101973.48
2019-01-10T15:47:53.238Z,101976.14
2019-01-10T15:50:21.764Z,101983.32
2019-01-10T15:52:50.787Z,101978.66
2019-01-10T15:55:21.258Z,101977.01
2019-01-10T15:57:49.828Z,101976.36
2019-01-10T16:00:23.029Z,101976.59
2019-01-10T16:02:52.327Z,101981.00
2019-01-10T16:05:21.032Z,101980.20
2019-01-10T16:07:49.579Z,101977.98
2019-01-10T16:10:19.487Z,101976.27
2019-01-10T16:12:48.145Z,101983.88
2019-01-10T16:15:21.671Z,101986.67
2019-01-10T16:17:50.151Z,101979.23
2019-01-10T16:20:18.601Z,101976.25
2019-01-10T16:22:47.285Z,101980.61
2019-01-10T16:25:19.750Z,101975.56
2019-01-10T16:27:48.528Z,101971.80
2019-01-10T16:30:19.863Z,101974.98
2019-01-10T16:32:48.304Z,101973.97
2019-01-10T16:35:16.836Z,101984.22
2019-01-10T16:37:45.556Z,101982.77
2019-01-10T16:40:16.392Z,101985.59
2019-01-10T16:42:44.838Z,101985.13
2019-01-10T16:45:19.138Z,101984.48
2019-01-10T16:47:47.622Z,101989.51
2019-01-10T16:50:16.154Z,101993.57
2019-01-10T16:52:44.580Z,101991.91
2019-01-10T16:55:14.283Z,101986.23
2019-01-10T16:57:42.714Z,101991.53
2019-01-10T17:00:17.125Z,101992.62
2019-01-10T17:02:45.572Z,101992.16
2019-01-10T17:05:14.115Z,101993.05
2019-01-10T17:07:42.558Z,101989.75
2019-01-10T17:10:12.065Z,101993.85
2019-01-10T17:12:40.500Z,101991.52
2019-01-10T17:15:11.605Z,101992.05
2019-01-10T17:17:40.046Z,101986.61
2019-01-10T17:20:17.031Z,101985.54
2019-01-10T17:22:45.474Z,101988.25
2019-01-10T17:25:14.889Z,101981.98
2019-01-10T17:27:43.401Z,101980.39
2019-01-10T17:30:14.898Z,101977.05
2019-01-10T17:32:43.355Z,101981.98
2019-01-10T17:35:15.006Z,101987.06
2019-01-10T17:37:43.442Z,101980.70
2019-01-10T17:40:15.446Z,101975.73
2019-01-10T17:42:44.066Z,101975.77
2019-01-10T17:45:16.055Z,101979.37
2019-01-10T17:47:45.612Z,101977.08
2019-01-10T17:50:16.770Z,101977.13
2019-01-10T17:52:45.268Z,101975.87
2019-01-10T17:55:13.951Z,101986.13
2019-01-10T17:57:42.411Z,101981.28
2019-01-10T18:00:14.258Z,101984.14
2019-01-10T18:02:42.781Z,101979.35
2019-01-10T18:05:11.588Z,101983.08
2019-01-10T18:07:40.060Z,101976.86
2019-01-10T18:10:11.567Z,101985.92
2019-01-10T18:12:40.026Z,101984.41
2019-01-10T18:15:10.809Z,101995.53
2019-01-10T18:17:39.316Z,101994.88
2019-01-10T18:20:10.829Z,101989.73
2019-01-10T18:22:39.301Z,101993.03
2019-01-10T18:25:10.504Z,101994.29
2019-01-10T18:27:38.970Z,102000.37
2019-01-10T18:30:12.949Z,101997.87
2019-01-10T18:32:41.602Z,101999.15
2019-01-10T18:35:10.108Z,102005.58
2019-01-10T18:37:38.562Z,102002.41
2019-01-10T18:40:09.886Z,102003.81
2019-01-10T18:42:38.409Z,102013.02
2019-01-10T18:45:09.896Z,102010.83
2019-01-10T18:47:38.378Z,102014.19
2019-01-10T18:50:15.983Z,102008.02
2019-01-10T18:52:44.454Z,102006.09
2019-01-10T18:55:12.892Z,102005.49
2019-01-10T18:57:41.335Z,102004.48
2019-01-10T19:00:15.476Z,102004.60
2019-01-10T19:02:43.986Z,102007.34
2019-01-10T19:05:12.588Z,102012.43
2019-01-10T19:07:41.057Z,102011.44
2019-01-10T19:10:12.834Z,102011.78
2019-01-10T19:12:41.294Z,102012.84
2019-01-10T19:15:10.404Z,102005.17
2019-01-10T19:17:38.861Z,102013.98
2019-01-10T19:20:12.900Z,102011.78
2019-01-10T19:22:41.387Z,102014.91
2019-01-10T19:25:10.173Z,102011.48
2019-01-10T19:27:39.755Z,102017.11
2019-01-10T19:30:22.899Z,102009.45
2019-01-10T19:32:51.823Z,102002.64
2019-01-10T19:35:20.388Z,102010.29
2019-01-10T19:37:49.978Z,102014.25
2019-01-10T19:40:21.705Z,102013.69
2019-01-10T19:42:50.135Z,102018.62
2019-01-10T19:45:20.875Z,102018.69
2019-01-10T19:47:49.703Z,102008.68
2019-01-10T19:50:20.511Z,102019.25
2019-01-10T19:52:49.019Z,102008.38
2019-01-10T19:55:19.149Z,102007.73
2019-01-10T19:57:47.849Z,102010.79
2019-01-10T20:00:24.973Z,102005.38
2019-01-10T20:02:53.511Z,102010.80
2019-01-10T20:05:22.051Z,102006.42
2019-01-10T20:07:50.525Z,102004.55
2019-01-10T20:10:19.514Z,102006.03
2019-01-10T20:12:48.174Z,102004.84
2019-01-10T20:15:16.731Z,102003.88
2019-01-10T20:17:45.240Z,102011.62
2019-01-10T20:20:17.094Z,102011.66
2019-01-10T20:22:45.579Z,102009.01
2019-01-10T20:25:15.039Z,102009.63
2019-01-10T20:27:43.501Z,102013.33
2019-01-10T20:30:17.458Z,102010.89
2019-01-10T20:32:45.932Z,102010.97
2019-01-10T20:35:15.799Z,102000.91
2019-01-10T20:37:44.326Z,102005.67
2019-01-10T20:40:15.022Z,102008.23
2019-01-10T20:42:43.653Z,102014.22
2019-01-10T20:45:14.907Z,102007.81
2019-01-10T20:47:43.533Z,102006.77
2019-01-10T20:50:15.069Z,102003.88
2019-01-10T20:52:43.598Z,102005.77
2019-01-10T20:55:15.175Z,102002.22
2019-01-10T20:57:43.662Z,101999.67
2019-01-10T21:00:20.436Z,101998.25
2019-01-10T21:02:49.805Z,102004.42
2019-01-10T21:05:18.764Z,102001.09
2019-01-10T21:07:49.044Z,102006.98
2019-01-10T21:10:22.294Z,101998.56
2019-01-10T21:12:51.797Z,101993.73
2019-01-10T21:15:22.528Z,101992.90
2019-01-10T21:17:50.992Z,101998.88
2019-01-10T21:20:19.636Z,101999.66
2019-01-10T21:22:49.418Z,102000.64
2019-01-10T21:25:18.093Z,102000.28
2019-01-10T21:27:47.499Z,102001.97
2019-01-10T21:30:21.374Z,102000.37
2019-01-10T21:32:49.914Z,102001.23
2019-01-10T21:35:19.135Z,101999.59
2019-01-10T21:37:47.913Z,101996.27
2019-01-10T21:40:18.947Z,102001.33
2019-01-10T21:42:47.470Z,101995.84
2019-01-10T21:45:18.805Z,101994.48
2019-01-10T21:47:47.430Z,101997.55
2019-01-10T21:50:18.725Z,101995.52
2019-01-10T21:52:47.264Z,101998.83
2019-01-10T21:55:15.943Z,101987.56
2019-01-10T21:57:44.449Z,101987.06
2019-01-10T22:00:18.966Z,101991.80
2019-01-10T22:02:47.501Z,101986.84
2019-01-10T22:05:16.054Z,101995.52
2019-01-10T22:07:46.104Z,101993.14
2019-01-10T22:10:15.057Z,101985.87
2019-01-10T22:12:43.549Z,101993.70
2019-01-10T22:15:14.462Z,101987.01
2019-01-10T22:17:42.915Z,101983.38
2019-01-10T22:20:14.294Z,101980.27
2019-01-10T22:22:42.985Z,101981.91
2019-01-10T22:25:11.595Z,101985.03
2019-01-10T22:27:40.067Z,101982.48
2019-01-10T22:30:17.546Z,101983.43
2019-01-10T22:32:46.017Z,101985.60
2019-01-10T22:35:16.999Z,101975.89
2019-01-10T22:37:45.488Z,101977.72
2019-01-10T22:40:16.512Z,101978.49
2019-01-10T22:42:45.107Z,101976.64
2019-01-10T22:45:14.708Z,101974.89
2019-01-10T22:47:43.167Z,101982.54
2019-01-10T22:50:14.648Z,101969.41
2019-01-10T22:52:43.093Z,101975.36
2019-01-10T22:55:13.081Z,101966.78
2019-01-10T22:57:41.538Z,101962.59
2019-01-10T23:00:48.899Z,101965.80
2019-01-10T23:03:17.335Z,101963.13
2019-01-10T23:05:45.802Z,101963.13
2019-01-10T23:08:14.237Z,101962.59
2019-01-10T23:10:42.891Z,101958.01
2019-01-10T23:13:11.701Z,101955.73
2019-01-10T23:15:40.153Z,101956.43
2019-01-10T23:18:08.876Z,101952.53
2019-01-10T23:20:37.850Z,101945.16
2019-01-10T23:23:11.758Z,101947.59
2019-01-10T23:25:40.376Z,101944.58
2019-01-10T23:28:09.063Z,101941.41
2019-01-10T23:30:52.519Z,101938.95
2019-01-10T23:33:21.048Z,101942.11
2019-01-10T23:35:53.200Z,101936.25
2019-01-10T23:38:23.318Z,101937.66
2019-01-10T23:40:51.934Z,101933.97
2019-01-10T23:43:20.416Z,101937.79
2019-01-10T23:45:48.963Z,101931.17
2019-01-10T23:48:17.443Z,101931.56
2019-01-10T23:50:45.959Z,101925.41
2019-01-10T23:53:14.428Z,101923.33
2019-01-10T23:55:42.876Z,101925.03
2019-01-10T23:58:11.329Z,101921.34
